sensor_id;sensor_type;location;lat;lon;timestamp;P1;durP1;ratioP1;P2;durP2;ratioP2
11608;SDS011;5860;52.018;8.536;2022-12-29T00:00:06;1.07;;;0.80;;
11608;SDS011;5860;52.018;8.536;2022-12-29T00:02:34;1.67;;;1.00;;
11608;SDS011;5860;52.018;8.536;2022-12-29T00:05:01;2.53;;;1.07;;
11608;SDS011;5860;52.018;8.536;2022-12-29T00:07:28;1.23;;;0.93;;
11608;SDS011;5860;52.018;8.536;2022-12-29T00:09:55;1.37;;;0.90;;
11608;SDS011;5860;52.018;8.536;2022-12-29T00:12:22;2.30;;;1.20;;
11608;SDS011;5860;52.018;8.536;2022-12-29T00:14:48;1.30;;;1.00;;
11608;SDS011;5860;52.018;8.536;2022-12-29T00:17:34;1.03;;;0.83;;
11608;SDS011;5860;52.018;8.536;2022-12-29T00:20:01;0.77;;;0.60;;
11608;SDS011;5860;52.018;8.536;2022-12-29T00:22:46;1.00;;;0.83;;
11608;SDS011;5860;52.018;8.536;2022-12-29T00:25:32;2.40;;;1.07;;
11608;SDS011;5860;52.018;8.536;2022-12-29T00:28:17;0.70;;;0.70;;
11608;SDS011;5860;52.018;8.536;2022-12-29T00:31:03;4.37;;;1.03;;
11608;SDS011;5860;52.018;8.536;2022-12-29T00:33:57;1.13;;;1.00;;
11608;SDS011;5860;52.018;8.536;2022-12-29T00:36:42;1.50;;;0.90;;
11608;SDS011;5860;52.018;8.536;2022-12-29T00:39:12;1.53;;;1.10;;
11608;SDS011;5860;52.018;8.536;2022-12-29T00:42:06;1.00;;;0.90;;
11608;SDS011;5860;52.018;8.536;2022-12-29T00:45:06;1.40;;;1.13;;
11608;SDS011;5860;52.018;8.536;2022-12-29T00:47:33;2.77;;;1.00;;
11608;SDS011;5860;52.018;8.536;2022-12-29T00:49:59;1.80;;;0.80;;
11608;SDS011;5860;52.018;8.536;2022-12-29T00:52:26;1.67;;;0.90;;
11608;SDS011;5860;52.018;8.536;2022-12-29T00:54:53;2.03;;;1.03;;
11608;SDS011;5860;52.018;8.536;2022-12-29T00:57:20;1.20;;;0.90;;
11608;SDS011;5860;52.018;8.536;2022-12-29T00:59:47;1.80;;;1.00;;
11608;SDS011;5860;52.018;8.536;2022-12-29T01:02:14;1.10;;;0.80;;
11608;SDS011;5860;52.018;8.536;2022-12-29T01:04:41;1.63;;;0.80;;
11608;SDS011;5860;52.018;8.536;2022-12-29T01:07:08;1.20;;;0.93;;
11608;SDS011;5860;52.018;8.536;2022-12-29T01:09:35;1.23;;;0.80;;
11608;SDS011;5860;52.018;8.536;2022-12-29T01:12:21;1.43;;;0.90;;
11608;SDS011;5860;52.018;8.536;2022-12-29T01:15:07;1.20;;;0.80;;
11608;SDS011;5860;52.018;8.536;2022-12-29T01:17:36;1.20;;;1.03;;
11608;SDS011;5860;52.018;8.536;2022-12-29T01:20:03;1.00;;;0.80;;
11608;SDS011;5860;52.018;8.536;2022-12-29T01:22:31;1.13;;;0.77;;
11608;SDS011;5860;52.018;8.536;2022-12-29T01:24:59;1.30;;;0.80;;
11608;SDS011;5860;52.018;8.536;2022-12-29T01:27:25;0.77;;;0.70;;
11608;SDS011;5860;52.018;8.536;2022-12-29T01:29:52;1.70;;;0.80;;
11608;SDS011;5860;52.018;8.536;2022-12-29T01:32:19;1.40;;;0.73;;
11608;SDS011;5860;52.018;8.536;2022-12-29T01:34:46;1.00;;;0.80;;
11608;SDS011;5860;52.018;8.536;2022-12-29T01:37:13;1.57;;;0.90;;
11608;SDS011;5860;52.018;8.536;2022-12-29T01:39:40;1.23;;;1.00;;
11608;SDS011;5860;52.018;8.536;2022-12-29T01:42:12;0.90;;;0.70;;
11608;SDS011;5860;52.018;8.536;2022-12-29T01:47:14;0.60;;;0.50;;
11608;SDS011;5860;52.018;8.536;2022-12-29T01:49:47;0.90;;;0.80;;
11608;SDS011;5860;52.018;8.536;2022-12-29T01:52:13;0.67;;;0.57;;
11608;SDS011;5860;52.018;8.536;2022-12-29T01:54:43;1.77;;;0.50;;
11608;SDS011;5860;52.018;8.536;2022-12-29T01:57:16;2.37;;;1.00;;
11608;SDS011;5860;52.018;8.536;2022-12-29T01:59:49;2.00;;;0.60;;
11608;SDS011;5860;52.018;8.536;2022-12-29T02:02:20;0.50;;;0.50;;
11608;SDS011;5860;52.018;8.536;2022-12-29T02:04:47;0.67;;;0.40;;
11608;SDS011;5860;52.018;8.536;2022-12-29T02:07:16;0.93;;;0.80;;
11608;SDS011;5860;52.018;8.536;2022-12-29T02:09:48;0.70;;;0.50;;
11608;SDS011;5860;52.018;8.536;2022-12-29T02:12:17;1.70;;;0.70;;
11608;SDS011;5860;52.018;8.536;2022-12-29T02:14:46;0.67;;;0.60;;
11608;SDS011;5860;52.018;8.536;2022-12-29T02:20:16;0.80;;;0.80;;
11608;SDS011;5860;52.018;8.536;2022-12-29T02:28:41;1.00;;;0.70;;
11608;SDS011;5860;52.018;8.536;2022-12-29T02:34:21;0.80;;;0.60;;
11608;SDS011;5860;52.018;8.536;2022-12-29T02:37:06;1.30;;;0.60;;
11608;SDS011;5860;52.018;8.536;2022-12-29T02:40:01;0.90;;;0.70;;
11608;SDS011;5860;52.018;8.536;2022-12-29T02:42:46;1.07;;;0.67;;
11608;SDS011;5860;52.018;8.536;2022-12-29T02:50:40;0.80;;;0.70;;
11608;SDS011;5860;52.018;8.536;2022-12-29T02:53:16;0.60;;;0.60;;
11608;SDS011;5860;52.018;8.536;2022-12-29T02:56:04;1.90;;;0.60;;
11608;SDS011;5860;52.018;8.536;2022-12-29T02:58:31;0.50;;;0.50;;
11608;SDS011;5860;52.018;8.536;2022-12-29T03:07:09;0.60;;;0.40;;
11608;SDS011;5860;52.018;8.536;2022-12-29T03:15:50;0.53;;;0.40;;
11608;SDS011;5860;52.018;8.536;2022-12-29T03:21:41;0.47;;;0.40;;
11608;SDS011;5860;52.018;8.536;2022-12-29T03:24:31;0.77;;;0.43;;
11608;SDS011;5860;52.018;8.536;2022-12-29T03:27:02;0.90;;;0.40;;
11608;SDS011;5860;52.018;8.536;2022-12-29T03:29:33;0.50;;;0.30;;
11608;SDS011;5860;52.018;8.536;2022-12-29T03:32:06;0.50;;;0.37;;
11608;SDS011;5860;52.018;8.536;2022-12-29T03:34:35;2.07;;;0.50;;
11608;SDS011;5860;52.018;8.536;2022-12-29T03:37:05;0.40;;;0.40;;
11608;SDS011;5860;52.018;8.536;2022-12-29T03:39:37;0.80;;;0.40;;
11608;SDS011;5860;52.018;8.536;2022-12-29T03:42:05;1.73;;;0.40;;
11608;SDS011;5860;52.018;8.536;2022-12-29T03:44:38;2.53;;;0.40;;
11608;SDS011;5860;52.018;8.536;2022-12-29T03:47:07;0.60;;;0.30;;
11608;SDS011;5860;52.018;8.536;2022-12-29T03:49:36;0.70;;;0.40;;
11608;SDS011;5860;52.018;8.536;2022-12-29T03:52:03;0.40;;;0.40;;
11608;SDS011;5860;52.018;8.536;2022-12-29T03:54:30;0.30;;;0.30;;
11608;SDS011;5860;52.018;8.536;2022-12-29T03:56:57;0.50;;;0.37;;
11608;SDS011;5860;52.018;8.536;2022-12-29T03:59:24;1.03;;;0.30;;
11608;SDS011;5860;52.018;8.536;2022-12-29T04:01:51;0.80;;;0.40;;
11608;SDS011;5860;52.018;8.536;2022-12-29T04:04:18;1.13;;;0.50;;
11608;SDS011;5860;52.018;8.536;2022-12-29T04:06:45;1.77;;;0.30;;
11608;SDS011;5860;52.018;8.536;2022-12-29T04:09:12;0.30;;;0.20;;
11608;SDS011;5860;52.018;8.536;2022-12-29T04:11:39;0.60;;;0.30;;
11608;SDS011;5860;52.018;8.536;2022-12-29T04:14:05;0.47;;;0.40;;
11608;SDS011;5860;52.018;8.536;2022-12-29T04:16:32;1.17;;;0.60;;
11608;SDS011;5860;52.018;8.536;2022-12-29T04:19:02;1.37;;;0.40;;
11608;SDS011;5860;52.018;8.536;2022-12-29T04:21:29;0.80;;;0.50;;
11608;SDS011;5860;52.018;8.536;2022-12-29T04:23:58;0.50;;;0.40;;
11608;SDS011;5860;52.018;8.536;2022-12-29T04:26:25;0.47;;;0.33;;
11608;SDS011;5860;52.018;8.536;2022-12-29T04:28:52;0.90;;;0.40;;
11608;SDS011;5860;52.018;8.536;2022-12-29T04:31:19;0.80;;;0.33;;
11608;SDS011;5860;52.018;8.536;2022-12-29T04:33:46;0.80;;;0.40;;
11608;SDS011;5860;52.018;8.536;2022-12-29T04:36:13;0.93;;;0.40;;
11608;SDS011;5860;52.018;8.536;2022-12-29T04:38:40;0.60;;;0.40;;
11608;SDS011;5860;52.018;8.536;2022-12-29T04:41:07;0.80;;;0.40;;
11608;SDS011;5860;52.018;8.536;2022-12-29T04:43:34;2.20;;;0.60;;
11608;SDS011;5860;52.018;8.536;2022-12-29T04:46:01;1.90;;;0.50;;
11608;SDS011;5860;52.018;8.536;2022-12-29T04:48:28;0.73;;;0.40;;
11608;SDS011;5860;52.018;8.536;2022-12-29T04:50:55;2.20;;;0.80;;
11608;SDS011;5860;52.018;8.536;2022-12-29T04:53:21;0.60;;;0.40;;
11608;SDS011;5860;52.018;8.536;2022-12-29T04:55:49;0.57;;;0.50;;
11608;SDS011;5860;52.018;8.536;2022-12-29T04:58:17;1.20;;;0.40;;
11608;SDS011;5860;52.018;8.536;2022-12-29T05:00:49;0.90;;;0.50;;
11608;SDS011;5860;52.018;8.536;2022-12-29T05:03:17;0.80;;;0.40;;
11608;SDS011;5860;52.018;8.536;2022-12-29T05:05:44;0.83;;;0.40;;
11608;SDS011;5860;52.018;8.536;2022-12-29T05:08:11;0.90;;;0.50;;
11608;SDS011;5860;52.018;8.536;2022-12-29T05:10:38;0.60;;;0.43;;
11608;SDS011;5860;52.018;8.536;2022-12-29T05:13:05;0.67;;;0.40;;
11608;SDS011;5860;52.018;8.536;2022-12-29T05:15:32;1.13;;;0.57;;
11608;SDS011;5860;52.018;8.536;2022-12-29T05:17:59;1.13;;;0.50;;
11608;SDS011;5860;52.018;8.536;2022-12-29T05:20:26;0.80;;;0.40;;
11608;SDS011;5860;52.018;8.536;2022-12-29T05:22:53;1.03;;;0.40;;
11608;SDS011;5860;52.018;8.536;2022-12-29T05:25:20;0.60;;;0.40;;
11608;SDS011;5860;52.018;8.536;2022-12-29T05:27:47;1.43;;;0.40;;
11608;SDS011;5860;52.018;8.536;2022-12-29T05:30:14;0.50;;;0.40;;
11608;SDS011;5860;52.018;8.536;2022-12-29T05:32:40;0.70;;;0.43;;
11608;SDS011;5860;52.018;8.536;2022-12-29T05:35:10;0.50;;;0.30;;
11608;SDS011;5860;52.018;8.536;2022-12-29T05:37:37;3.07;;;0.60;;
11608;SDS011;5860;52.018;8.536;2022-12-29T05:40:04;0.70;;;0.40;;
11608;SDS011;5860;52.018;8.536;2022-12-29T05:42:32;1.57;;;0.67;;
11608;SDS011;5860;52.018;8.536;2022-12-29T05:44:59;0.37;;;0.30;;
11608;SDS011;5860;52.018;8.536;2022-12-29T05:47:26;0.60;;;0.33;;
11608;SDS011;5860;52.018;8.536;2022-12-29T05:49:53;0.53;;;0.40;;
11608;SDS011;5860;52.018;8.536;2022-12-29T05:52:20;0.87;;;0.37;;
11608;SDS011;5860;52.018;8.536;2022-12-29T05:54:46;1.13;;;0.47;;
11608;SDS011;5860;52.018;8.536;2022-12-29T05:57:13;0.60;;;0.40;;
11608;SDS011;5860;52.018;8.536;2022-12-29T05:59:40;0.97;;;0.40;;
11608;SDS011;5860;52.018;8.536;2022-12-29T06:02:07;0.80;;;0.50;;
11608;SDS011;5860;52.018;8.536;2022-12-29T06:04:35;1.03;;;0.50;;
11608;SDS011;5860;52.018;8.536;2022-12-29T06:07:02;0.70;;;0.50;;
11608;SDS011;5860;52.018;8.536;2022-12-29T06:09:29;1.50;;;0.43;;
11608;SDS011;5860;52.018;8.536;2022-12-29T06:11:55;0.70;;;0.40;;
11608;SDS011;5860;52.018;8.536;2022-12-29T06:14:24;0.97;;;0.60;;
11608;SDS011;5860;52.018;8.536;2022-12-29T06:16:51;1.70;;;0.40;;
11608;SDS011;5860;52.018;8.536;2022-12-29T06:19:18;1.13;;;0.30;;
11608;SDS011;5860;52.018;8.536;2022-12-29T06:21:45;0.60;;;0.50;;
11608;SDS011;5860;52.018;8.536;2022-12-29T06:24:12;0.50;;;0.40;;
11608;SDS011;5860;52.018;8.536;2022-12-29T06:26:41;1.60;;;0.67;;
11608;SDS011;5860;52.018;8.536;2022-12-29T06:29:09;0.87;;;0.40;;
11608;SDS011;5860;52.018;8.536;2022-12-29T06:31:43;0.87;;;0.40;;
11608;SDS011;5860;52.018;8.536;2022-12-29T06:34:12;2.13;;;0.80;;
11608;SDS011;5860;52.018;8.536;2022-12-29T06:36:39;1.60;;;0.50;;
11608;SDS011;5860;52.018;8.536;2022-12-29T06:39:06;0.60;;;0.40;;
11608;SDS011;5860;52.018;8.536;2022-12-29T06:41:32;5.10;;;0.70;;
11608;SDS011;5860;52.018;8.536;2022-12-29T06:43:59;1.60;;;0.50;;
11608;SDS011;5860;52.018;8.536;2022-12-29T06:46:26;1.40;;;0.37;;
11608;SDS011;5860;52.018;8.536;2022-12-29T06:48:53;0.80;;;0.20;;
11608;SDS011;5860;52.018;8.536;2022-12-29T06:51:20;1.17;;;0.40;;
11608;SDS011;5860;52.018;8.536;2022-12-29T06:53:47;1.77;;;0.60;;
11608;SDS011;5860;52.018;8.536;2022-12-29T06:56:13;1.37;;;0.50;;
11608;SDS011;5860;52.018;8.536;2022-12-29T06:58:40;2.97;;;0.57;;
11608;SDS011;5860;52.018;8.536;2022-12-29T07:01:07;0.70;;;0.40;;
11608;SDS011;5860;52.018;8.536;2022-12-29T07:03:34;1.90;;;0.60;;
11608;SDS011;5860;52.018;8.536;2022-12-29T07:06:01;1.47;;;0.70;;
11608;SDS011;5860;52.018;8.536;2022-12-29T07:08:28;2.33;;;0.50;;
11608;SDS011;5860;52.018;8.536;2022-12-29T07:10:55;1.70;;;0.70;;
11608;SDS011;5860;52.018;8.536;2022-12-29T07:13:22;1.70;;;0.70;;
11608;SDS011;5860;52.018;8.536;2022-12-29T07:15:49;1.37;;;0.70;;
11608;SDS011;5860;52.018;8.536;2022-12-29T07:18:16;0.97;;;0.87;;
11608;SDS011;5860;52.018;8.536;2022-12-29T07:20:43;1.77;;;0.93;;
11608;SDS011;5860;52.018;8.536;2022-12-29T07:23:11;2.10;;;0.80;;
11608;SDS011;5860;52.018;8.536;2022-12-29T07:25:37;2.30;;;0.90;;
11608;SDS011;5860;52.018;8.536;2022-12-29T07:28:07;3.13;;;1.00;;
11608;SDS011;5860;52.018;8.536;2022-12-29T07:30:36;1.40;;;0.90;;
11608;SDS011;5860;52.018;8.536;2022-12-29T07:33:03;2.40;;;0.87;;
11608;SDS011;5860;52.018;8.536;2022-12-29T07:35:29;1.90;;;1.17;;
11608;SDS011;5860;52.018;8.536;2022-12-29T07:37:56;4.80;;;1.17;;
11608;SDS011;5860;52.018;8.536;2022-12-29T07:40:23;1.33;;;0.80;;
11608;SDS011;5860;52.018;8.536;2022-12-29T07:42:50;3.90;;;0.80;;
11608;SDS011;5860;52.018;8.536;2022-12-29T07:45:17;2.97;;;0.90;;
11608;SDS011;5860;52.018;8.536;2022-12-29T07:47:47;3.17;;;1.00;;
11608;SDS011;5860;52.018;8.536;2022-12-29T07:50:15;2.03;;;0.80;;
11608;SDS011;5860;52.018;8.536;2022-12-29T07:52:42;3.73;;;0.90;;
11608;SDS011;5860;52.018;8.536;2022-12-29T07:55:09;2.93;;;0.90;;
11608;SDS011;5860;52.018;8.536;2022-12-29T07:57:36;4.03;;;0.73;;
11608;SDS011;5860;52.018;8.536;2022-12-29T08:00:03;2.30;;;0.90;;
11608;SDS011;5860;52.018;8.536;2022-12-29T08:02:30;5.03;;;1.10;;
11608;SDS011;5860;52.018;8.536;2022-12-29T08:04:57;3.33;;;0.63;;
11608;SDS011;5860;52.018;8.536;2022-12-29T08:07:24;3.40;;;1.20;;
11608;SDS011;5860;52.018;8.536;2022-12-29T08:09:51;1.67;;;1.00;;
11608;SDS011;5860;52.018;8.536;2022-12-29T08:12:18;1.80;;;0.83;;
11608;SDS011;5860;52.018;8.536;2022-12-29T08:14:45;1.83;;;0.80;;
11608;SDS011;5860;52.018;8.536;2022-12-29T08:17:12;2.67;;;0.90;;
11608;SDS011;5860;52.018;8.536;2022-12-29T08:19:39;2.03;;;1.17;;
11608;SDS011;5860;52.018;8.536;2022-12-29T08:22:08;3.87;;;1.00;;
11608;SDS011;5860;52.018;8.536;2022-12-29T08:24:35;3.30;;;0.90;;
11608;SDS011;5860;52.018;8.536;2022-12-29T08:27:02;2.23;;;1.07;;
11608;SDS011;5860;52.018;8.536;2022-12-29T08:29:43;3.27;;;0.97;;
11608;SDS011;5860;52.018;8.536;2022-12-29T08:32:10;2.10;;;0.93;;
11608;SDS011;5860;52.018;8.536;2022-12-29T08:34:37;1.83;;;0.80;;
11608;SDS011;5860;52.018;8.536;2022-12-29T08:37:04;3.43;;;1.00;;
11608;SDS011;5860;52.018;8.536;2022-12-29T08:39:31;2.67;;;0.80;;
11608;SDS011;5860;52.018;8.536;2022-12-29T08:41:58;2.20;;;1.00;;
11608;SDS011;5860;52.018;8.536;2022-12-29T08:44:25;2.77;;;0.90;;
11608;SDS011;5860;52.018;8.536;2022-12-29T08:46:52;4.27;;;1.30;;
11608;SDS011;5860;52.018;8.536;2022-12-29T08:49:22;4.67;;;1.03;;
11608;SDS011;5860;52.018;8.536;2022-12-29T08:51:49;2.80;;;0.90;;
11608;SDS011;5860;52.018;8.536;2022-12-29T08:54:16;1.80;;;0.90;;
11608;SDS011;5860;52.018;8.536;2022-12-29T08:56:42;3.50;;;1.00;;
11608;SDS011;5860;52.018;8.536;2022-12-29T08:59:09;4.13;;;1.10;;
11608;SDS011;5860;52.018;8.536;2022-12-29T09:01:36;2.93;;;1.00;;
11608;SDS011;5860;52.018;8.536;2022-12-29T09:04:07;3.33;;;1.33;;
11608;SDS011;5860;52.018;8.536;2022-12-29T09:06:43;4.17;;;1.40;;
11608;SDS011;5860;52.018;8.536;2022-12-29T09:09:11;2.80;;;1.47;;
11608;SDS011;5860;52.018;8.536;2022-12-29T09:11:38;4.80;;;1.60;;
11608;SDS011;5860;52.018;8.536;2022-12-29T09:14:05;2.07;;;1.30;;
11608;SDS011;5860;52.018;8.536;2022-12-29T09:16:32;3.17;;;1.03;;
11608;SDS011;5860;52.018;8.536;2022-12-29T09:19:01;2.53;;;0.90;;
11608;SDS011;5860;52.018;8.536;2022-12-29T09:21:28;1.73;;;0.93;;
11608;SDS011;5860;52.018;8.536;2022-12-29T09:23:55;2.77;;;0.90;;
11608;SDS011;5860;52.018;8.536;2022-12-29T09:26:21;1.47;;;0.90;;
11608;SDS011;5860;52.018;8.536;2022-12-29T09:28:48;3.20;;;1.20;;
11608;SDS011;5860;52.018;8.536;2022-12-29T09:31:15;3.73;;;1.43;;
11608;SDS011;5860;52.018;8.536;2022-12-29T09:33:42;4.23;;;1.10;;
11608;SDS011;5860;52.018;8.536;2022-12-29T09:36:09;1.50;;;1.07;;
11608;SDS011;5860;52.018;8.536;2022-12-29T09:38:36;3.57;;;1.20;;
11608;SDS011;5860;52.018;8.536;2022-12-29T09:43:50;3.53;;;1.67;;
11608;SDS011;5860;52.018;8.536;2022-12-29T09:46:43;3.23;;;1.33;;
11608;SDS011;5860;52.018;8.536;2022-12-29T09:49:24;5.80;;;1.63;;
11608;SDS011;5860;52.018;8.536;2022-12-29T09:52:05;2.90;;;1.40;;
11608;SDS011;5860;52.018;8.536;2022-12-29T09:54:39;3.43;;;1.27;;
11608;SDS011;5860;52.018;8.536;2022-12-29T09:59:55;4.40;;;1.30;;
11608;SDS011;5860;52.018;8.536;2022-12-29T10:02:43;4.23;;;0.97;;
11608;SDS011;5860;52.018;8.536;2022-12-29T10:05:20;3.93;;;1.17;;
11608;SDS011;5860;52.018;8.536;2022-12-29T10:10:43;2.83;;;1.00;;
11608;SDS011;5860;52.018;8.536;2022-12-29T10:16:34;5.80;;;1.20;;
11608;SDS011;5860;52.018;8.536;2022-12-29T10:19:27;7.17;;;1.47;;
11608;SDS011;5860;52.018;8.536;2022-12-29T10:24:52;5.23;;;1.20;;
11608;SDS011;5860;52.018;8.536;2022-12-29T10:27:22;2.50;;;0.97;;
11608;SDS011;5860;52.018;8.536;2022-12-29T10:29:58;5.00;;;1.43;;
11608;SDS011;5860;52.018;8.536;2022-12-29T10:32:32;6.70;;;1.80;;
11608;SDS011;5860;52.018;8.536;2022-12-29T10:35:25;3.37;;;1.73;;
11608;SDS011;5860;52.018;8.536;2022-12-29T10:40:43;3.13;;;1.20;;
11608;SDS011;5860;52.018;8.536;2022-12-29T10:46:19;6.27;;;1.40;;
11608;SDS011;5860;52.018;8.536;2022-12-29T10:48:49;8.13;;;1.40;;
11608;SDS011;5860;52.018;8.536;2022-12-29T10:51:21;3.77;;;1.30;;
11608;SDS011;5860;52.018;8.536;2022-12-29T10:53:55;4.37;;;1.30;;
11608;SDS011;5860;52.018;8.536;2022-12-29T10:56:50;3.93;;;1.23;;
11608;SDS011;5860;52.018;8.536;2022-12-29T11:07:50;5.37;;;1.60;;
11608;SDS011;5860;52.018;8.536;2022-12-29T11:10:34;4.20;;;1.03;;
11608;SDS011;5860;52.018;8.536;2022-12-29T11:16:14;4.20;;;1.23;;
11608;SDS011;5860;52.018;8.536;2022-12-29T11:18:53;5.90;;;1.27;;
11608;SDS011;5860;52.018;8.536;2022-12-29T11:21:25;3.07;;;1.17;;
11608;SDS011;5860;52.018;8.536;2022-12-29T11:24:20;5.17;;;0.90;;
11608;SDS011;5860;52.018;8.536;2022-12-29T11:26:50;7.03;;;1.60;;
11608;SDS011;5860;52.018;8.536;2022-12-29T11:31:56;3.07;;;1.27;;
11608;SDS011;5860;52.018;8.536;2022-12-29T11:37:01;3.83;;;1.53;;
11608;SDS011;5860;52.018;8.536;2022-12-29T11:42:39;2.77;;;1.07;;
11608;SDS011;5860;52.018;8.536;2022-12-29T11:45:16;3.57;;;1.07;;
11608;SDS011;5860;52.018;8.536;2022-12-29T11:47:58;6.37;;;1.63;;
11608;SDS011;5860;52.018;8.536;2022-12-29T11:50:29;1.77;;;0.70;;
11608;SDS011;5860;52.018;8.536;2022-12-29T11:53:00;5.20;;;1.60;;
11608;SDS011;5860;52.018;8.536;2022-12-29T11:55:49;4.00;;;1.27;;
11608;SDS011;5860;52.018;8.536;2022-12-29T11:58:18;6.20;;;1.20;;
11608;SDS011;5860;52.018;8.536;2022-12-29T12:00:45;3.53;;;1.30;;
11608;SDS011;5860;52.018;8.536;2022-12-29T12:03:17;4.17;;;1.37;;
11608;SDS011;5860;52.018;8.536;2022-12-29T12:05:50;4.90;;;1.00;;
11608;SDS011;5860;52.018;8.536;2022-12-29T12:08:31;4.43;;;1.17;;
11608;SDS011;5860;52.018;8.536;2022-12-29T12:11:22;4.43;;;1.00;;
11608;SDS011;5860;52.018;8.536;2022-12-29T12:14:18;4.13;;;1.40;;
11608;SDS011;5860;52.018;8.536;2022-12-29T12:16:57;5.17;;;1.47;;
11608;SDS011;5860;52.018;8.536;2022-12-29T12:19:45;5.37;;;1.10;;
11608;SDS011;5860;52.018;8.536;2022-12-29T12:22:16;4.33;;;1.33;;
11608;SDS011;5860;52.018;8.536;2022-12-29T12:24:52;4.77;;;1.03;;
11608;SDS011;5860;52.018;8.536;2022-12-29T12:27:26;5.43;;;1.83;;
11608;SDS011;5860;52.018;8.536;2022-12-29T12:32:35;4.57;;;1.30;;
11608;SDS011;5860;52.018;8.536;2022-12-29T12:35:13;4.17;;;1.40;;
11608;SDS011;5860;52.018;8.536;2022-12-29T12:51:33;5.40;;;1.87;;
11608;SDS011;5860;52.018;8.536;2022-12-29T13:02:37;7.90;;;1.43;;
11608;SDS011;5860;52.018;8.536;2022-12-29T13:05:25;2.63;;;1.27;;
11608;SDS011;5860;52.018;8.536;2022-12-29T13:13:38;3.63;;;1.57;;
11608;SDS011;5860;52.018;8.536;2022-12-29T13:19:14;6.33;;;2.13;;
11608;SDS011;5860;52.018;8.536;2022-12-29T13:22:13;5.83;;;1.50;;
11608;SDS011;5860;52.018;8.536;2022-12-29T13:27:51;5.87;;;1.53;;
11608;SDS011;5860;52.018;8.536;2022-12-29T13:33:15;5.23;;;1.37;;
11608;SDS011;5860;52.018;8.536;2022-12-29T13:38:56;5.17;;;1.70;;
11608;SDS011;5860;52.018;8.536;2022-12-29T13:41:35;8.27;;;1.73;;
11608;SDS011;5860;52.018;8.536;2022-12-29T13:44:27;3.80;;;1.03;;
11608;SDS011;5860;52.018;8.536;2022-12-29T13:47:06;4.87;;;1.43;;
11608;SDS011;5860;52.018;8.536;2022-12-29T13:49:38;6.00;;;1.60;;
11608;SDS011;5860;52.018;8.536;2022-12-29T13:52:11;8.60;;;1.63;;
11608;SDS011;5860;52.018;8.536;2022-12-29T14:00:31;5.77;;;1.70;;
11608;SDS011;5860;52.018;8.536;2022-12-29T14:08:41;5.60;;;1.50;;
11608;SDS011;5860;52.018;8.536;2022-12-29T14:11:10;5.40;;;1.57;;
11608;SDS011;5860;52.018;8.536;2022-12-29T14:13:40;4.40;;;1.53;;
11608;SDS011;5860;52.018;8.536;2022-12-29T14:16:23;7.27;;;2.10;;
11608;SDS011;5860;52.018;8.536;2022-12-29T14:18:51;5.33;;;1.20;;
11608;SDS011;5860;52.018;8.536;2022-12-29T14:21:21;5.70;;;1.40;;
11608;SDS011;5860;52.018;8.536;2022-12-29T14:23:50;4.53;;;1.60;;
11608;SDS011;5860;52.018;8.536;2022-12-29T14:28:56;7.87;;;1.60;;
11608;SDS011;5860;52.018;8.536;2022-12-29T14:31:41;6.70;;;1.83;;
11608;SDS011;5860;52.018;8.536;2022-12-29T14:36:36;6.10;;;1.63;;
11608;SDS011;5860;52.018;8.536;2022-12-29T14:47:43;6.70;;;1.67;;
11608;SDS011;5860;52.018;8.536;2022-12-29T14:50:16;9.50;;;1.93;;
11608;SDS011;5860;52.018;8.536;2022-12-29T14:58:28;6.93;;;1.50;;
11608;SDS011;5860;52.018;8.536;2022-12-29T15:01:22;6.30;;;1.73;;
11608;SDS011;5860;52.018;8.536;2022-12-29T15:03:54;5.03;;;1.50;;
11608;SDS011;5860;52.018;8.536;2022-12-29T15:06:28;7.83;;;1.63;;
11608;SDS011;5860;52.018;8.536;2022-12-29T15:13:59;4.00;;;1.40;;
11608;SDS011;5860;52.018;8.536;2022-12-29T15:16:33;9.93;;;2.00;;
11608;SDS011;5860;52.018;8.536;2022-12-29T15:19:03;6.07;;;1.50;;
11608;SDS011;5860;52.018;8.536;2022-12-29T15:21:34;6.33;;;1.40;;
11608;SDS011;5860;52.018;8.536;2022-12-29T15:24:02;3.20;;;1.40;;
11608;SDS011;5860;52.018;8.536;2022-12-29T15:26:37;10.63;;;2.13;;
11608;SDS011;5860;52.018;8.536;2022-12-29T15:29:27;4.77;;;1.70;;
11608;SDS011;5860;52.018;8.536;2022-12-29T15:31:56;6.90;;;1.90;;
11608;SDS011;5860;52.018;8.536;2022-12-29T15:34:28;6.53;;;1.40;;
11608;SDS011;5860;52.018;8.536;2022-12-29T15:36:57;5.53;;;1.77;;
11608;SDS011;5860;52.018;8.536;2022-12-29T15:39:29;3.17;;;1.30;;
11608;SDS011;5860;52.018;8.536;2022-12-29T15:42:16;5.70;;;1.70;;
11608;SDS011;5860;52.018;8.536;2022-12-29T15:45:08;5.77;;;1.50;;
11608;SDS011;5860;52.018;8.536;2022-12-29T15:47:38;4.97;;;1.57;;
11608;SDS011;5860;52.018;8.536;2022-12-29T15:50:12;9.37;;;1.67;;
11608;SDS011;5860;52.018;8.536;2022-12-29T15:52:48;4.67;;;1.57;;
11608;SDS011;5860;52.018;8.536;2022-12-29T15:55:37;5.07;;;1.70;;
11608;SDS011;5860;52.018;8.536;2022-12-29T15:58:05;11.57;;;2.17;;
11608;SDS011;5860;52.018;8.536;2022-12-29T16:00:46;3.87;;;1.47;;
11608;SDS011;5860;52.018;8.536;2022-12-29T16:03:14;4.90;;;1.53;;
11608;SDS011;5860;52.018;8.536;2022-12-29T16:05:49;5.63;;;1.40;;
11608;SDS011;5860;52.018;8.536;2022-12-29T16:08:37;7.67;;;1.57;;
11608;SDS011;5860;52.018;8.536;2022-12-29T16:11:22;5.70;;;1.53;;
11608;SDS011;5860;52.018;8.536;2022-12-29T16:13:53;5.43;;;1.43;;
11608;SDS011;5860;52.018;8.536;2022-12-29T16:16:25;5.03;;;1.40;;
11608;SDS011;5860;52.018;8.536;2022-12-29T16:18:58;3.83;;;1.50;;
11608;SDS011;5860;52.018;8.536;2022-12-29T16:21:30;5.67;;;1.37;;
11608;SDS011;5860;52.018;8.536;2022-12-29T16:24:00;4.40;;;1.30;;
11608;SDS011;5860;52.018;8.536;2022-12-29T16:26:31;4.27;;;1.60;;
11608;SDS011;5860;52.018;8.536;2022-12-29T16:28:59;4.80;;;1.37;;
11608;SDS011;5860;52.018;8.536;2022-12-29T16:31:35;4.93;;;1.50;;
11608;SDS011;5860;52.018;8.536;2022-12-29T16:36:56;5.23;;;1.53;;
11608;SDS011;5860;52.018;8.536;2022-12-29T16:39:31;6.00;;;1.63;;
11608;SDS011;5860;52.018;8.536;2022-12-29T16:42:00;7.80;;;1.90;;
11608;SDS011;5860;52.018;8.536;2022-12-29T16:44:30;7.50;;;2.00;;
11608;SDS011;5860;52.018;8.536;2022-12-29T16:46:58;4.70;;;1.50;;
11608;SDS011;5860;52.018;8.536;2022-12-29T16:49:33;10.40;;;1.97;;
11608;SDS011;5860;52.018;8.536;2022-12-29T16:52:01;4.83;;;1.50;;
11608;SDS011;5860;52.018;8.536;2022-12-29T16:54:43;5.67;;;1.90;;
11608;SDS011;5860;52.018;8.536;2022-12-29T16:57:28;6.60;;;2.07;;
11608;SDS011;5860;52.018;8.536;2022-12-29T16:59:59;5.17;;;2.00;;
11608;SDS011;5860;52.018;8.536;2022-12-29T17:02:30;6.77;;;2.07;;
11608;SDS011;5860;52.018;8.536;2022-12-29T17:04:58;4.80;;;1.53;;
11608;SDS011;5860;52.018;8.536;2022-12-29T17:07:26;5.07;;;1.00;;
11608;SDS011;5860;52.018;8.536;2022-12-29T17:09:54;4.80;;;1.57;;
11608;SDS011;5860;52.018;8.536;2022-12-29T17:12:25;7.80;;;1.87;;
11608;SDS011;5860;52.018;8.536;2022-12-29T17:14:58;8.47;;;1.77;;
11608;SDS011;5860;52.018;8.536;2022-12-29T17:20:02;6.60;;;1.20;;
11608;SDS011;5860;52.018;8.536;2022-12-29T17:22:40;7.50;;;2.03;;
11608;SDS011;5860;52.018;8.536;2022-12-29T17:25:11;5.50;;;2.07;;
11608;SDS011;5860;52.018;8.536;2022-12-29T17:27:52;3.20;;;1.47;;
11608;SDS011;5860;52.018;8.536;2022-12-29T17:30:23;9.60;;;2.10;;
11608;SDS011;5860;52.018;8.536;2022-12-29T17:33:03;4.77;;;1.90;;
11608;SDS011;5860;52.018;8.536;2022-12-29T17:35:34;6.90;;;2.40;;
11608;SDS011;5860;52.018;8.536;2022-12-29T17:38:01;5.70;;;2.07;;
11608;SDS011;5860;52.018;8.536;2022-12-29T17:40:29;7.17;;;2.13;;
11608;SDS011;5860;52.018;8.536;2022-12-29T17:42:58;8.13;;;2.40;;
11608;SDS011;5860;52.018;8.536;2022-12-29T17:45:29;7.93;;;3.47;;
11608;SDS011;5860;52.018;8.536;2022-12-29T17:47:58;6.90;;;2.80;;
11608;SDS011;5860;52.018;8.536;2022-12-29T17:50:27;5.77;;;2.40;;
11608;SDS011;5860;52.018;8.536;2022-12-29T17:53:00;8.00;;;2.30;;
11608;SDS011;5860;52.018;8.536;2022-12-29T17:55:29;7.33;;;3.63;;
11608;SDS011;5860;52.018;8.536;2022-12-29T18:00:47;7.67;;;3.93;;
11608;SDS011;5860;52.018;8.536;2022-12-29T18:03:17;9.17;;;2.40;;
11608;SDS011;5860;52.018;8.536;2022-12-29T18:05:48;7.80;;;2.23;;
11608;SDS011;5860;52.018;8.536;2022-12-29T18:08:15;5.73;;;1.90;;